sensor_id;sensor_type;location;lat;lon;timestamp;P1;durP1;ratioP1;P2;durP2;ratioP2
23113;SDS011;11726;50.122;8.832;2023-07-28T00:01:35;3.20;;;2.00;;
23113;SDS011;11726;50.122;8.832;2023-07-28T00:04:02;2.05;;;1.83;;
23113;SDS011;11726;50.122;8.832;2023-07-28T00:06:33;2.28;;;1.73;;
23113;SDS011;11726;50.122;8.832;2023-07-28T00:09:01;4.57;;;1.98;;
23113;SDS011;11726;50.122;8.832;2023-07-28T00:11:28;4.22;;;1.80;;
23113;SDS011;11726;50.122;8.832;2023-07-28T00:13:55;2.00;;;1.67;;
23113;SDS011;11726;50.122;8.832;2023-07-28T00:16:22;4.90;;;1.80;;
23113;SDS011;11726;50.122;8.832;2023-07-28T00:18:49;2.92;;;2.00;;
23113;SDS011;11726;50.122;8.832;2023-07-28T00:21:15;2.83;;;1.50;;
23113;SDS011;11726;50.122;8.832;2023-07-28T00:23:42;2.42;;;1.77;;
23113;SDS011;11726;50.122;8.832;2023-07-28T00:26:09;5.60;;;1.90;;
23113;SDS011;11726;50.122;8.832;2023-07-28T00:28:35;4.53;;;1.80;;
23113;SDS011;11726;50.122;8.832;2023-07-28T00:31:02;3.15;;;1.92;;
23113;SDS011;11726;50.122;8.832;2023-07-28T00:33:29;6.47;;;2.05;;
23113;SDS011;11726;50.122;8.832;2023-07-28T00:35:55;2.13;;;1.92;;
23113;SDS011;11726;50.122;8.832;2023-07-28T00:38:22;2.50;;;1.80;;
23113;SDS011;11726;50.122;8.832;2023-07-28T00:40:49;2.05;;;1.88;;
23113;SDS011;11726;50.122;8.832;2023-07-28T00:43:15;4.13;;;2.22;;
23113;SDS011;11726;50.122;8.832;2023-07-28T00:45:42;4.18;;;2.15;;
23113;SDS011;11726;50.122;8.832;2023-07-28T00:48:13;2.20;;;1.90;;
23113;SDS011;11726;50.122;8.832;2023-07-28T00:50:41;6.85;;;2.63;;
23113;SDS011;11726;50.122;8.832;2023-07-28T00:53:10;3.17;;;2.35;;
23113;SDS011;11726;50.122;8.832;2023-07-28T00:55:38;4.32;;;2.65;;
23113;SDS011;11726;50.122;8.832;2023-07-28T00:58:05;3.75;;;2.60;;
23113;SDS011;11726;50.122;8.832;2023-07-28T01:00:32;5.07;;;2.47;;
23113;SDS011;11726;50.122;8.832;2023-07-28T01:02:58;5.00;;;2.30;;
23113;SDS011;11726;50.122;8.832;2023-07-28T01:05:26;3.20;;;2.28;;
23113;SDS011;11726;50.122;8.832;2023-07-28T01:08:02;4.35;;;2.53;;
23113;SDS011;11726;50.122;8.832;2023-07-28T01:10:35;2.88;;;2.10;;
23113;SDS011;11726;50.122;8.832;2023-07-28T01:13:02;3.20;;;2.35;;
23113;SDS011;11726;50.122;8.832;2023-07-28T01:15:29;3.35;;;2.25;;
23113;SDS011;11726;50.122;8.832;2023-07-28T01:17:55;3.40;;;2.25;;
23113;SDS011;11726;50.122;8.832;2023-07-28T01:20:22;2.58;;;2.33;;
23113;SDS011;11726;50.122;8.832;2023-07-28T01:28:20;5.85;;;2.42;;
23113;SDS011;11726;50.122;8.832;2023-07-28T01:30:48;5.47;;;2.08;;
23113;SDS011;11726;50.122;8.832;2023-07-28T01:33:15;3.92;;;2.33;;
23113;SDS011;11726;50.122;8.832;2023-07-28T01:35:41;3.83;;;2.28;;
23113;SDS011;11726;50.122;8.832;2023-07-28T01:38:08;3.10;;;2.10;;
23113;SDS011;11726;50.122;8.832;2023-07-28T01:40:35;3.13;;;2.47;;
23113;SDS011;11726;50.122;8.832;2023-07-28T01:43:01;5.38;;;2.65;;
23113;SDS011;11726;50.122;8.832;2023-07-28T01:45:29;2.40;;;1.90;;
23113;SDS011;11726;50.122;8.832;2023-07-28T01:47:55;4.68;;;2.78;;
23113;SDS011;11726;50.122;8.832;2023-07-28T01:50:22;3.55;;;2.65;;
23113;SDS011;11726;50.122;8.832;2023-07-28T01:52:49;4.32;;;3.00;;
23113;SDS011;11726;50.122;8.832;2023-07-28T01:55:16;4.07;;;2.83;;
23113;SDS011;11726;50.122;8.832;2023-07-28T01:57:49;5.35;;;2.88;;
23113;SDS011;11726;50.122;8.832;2023-07-28T02:00:20;3.33;;;2.60;;
23113;SDS011;11726;50.122;8.832;2023-07-28T02:02:48;5.25;;;2.53;;
23113;SDS011;11726;50.122;8.832;2023-07-28T02:05:15;5.93;;;3.03;;
23113;SDS011;11726;50.122;8.832;2023-07-28T02:07:42;2.92;;;2.60;;
23113;SDS011;11726;50.122;8.832;2023-07-28T02:10:09;11.05;;;2.90;;
23113;SDS011;11726;50.122;8.832;2023-07-28T02:12:36;4.40;;;2.97;;
23113;SDS011;11726;50.122;8.832;2023-07-28T02:15:04;4.28;;;2.63;;
23113;SDS011;11726;50.122;8.832;2023-07-28T02:17:32;3.03;;;2.20;;
23113;SDS011;11726;50.122;8.832;2023-07-28T02:19:59;6.45;;;2.70;;
23113;SDS011;11726;50.122;8.832;2023-07-28T02:22:25;3.00;;;2.47;;
23113;SDS011;11726;50.122;8.832;2023-07-28T02:24:52;4.75;;;2.40;;
23113;SDS011;11726;50.122;8.832;2023-07-28T02:27:19;3.72;;;2.63;;
23113;SDS011;11726;50.122;8.832;2023-07-28T02:29:46;4.97;;;2.70;;
23113;SDS011;11726;50.122;8.832;2023-07-28T02:32:13;3.42;;;2.55;;
23113;SDS011;11726;50.122;8.832;2023-07-28T02:34:40;4.93;;;2.42;;
23113;SDS011;11726;50.122;8.832;2023-07-28T02:37:07;5.38;;;2.75;;
23113;SDS011;11726;50.122;8.832;2023-07-28T02:39:33;4.38;;;2.72;;
23113;SDS011;11726;50.122;8.832;2023-07-28T02:42:00;2.88;;;2.40;;
23113;SDS011;11726;50.122;8.832;2023-07-28T02:44:27;3.40;;;2.22;;
23113;SDS011;11726;50.122;8.832;2023-07-28T02:46:53;5.10;;;2.40;;
23113;SDS011;11726;50.122;8.832;2023-07-28T02:49:20;4.35;;;2.38;;
23113;SDS011;11726;50.122;8.832;2023-07-28T02:51:47;2.75;;;2.00;;
23113;SDS011;11726;50.122;8.832;2023-07-28T02:54:14;4.18;;;2.42;;
23113;SDS011;11726;50.122;8.832;2023-07-28T02:56:40;4.82;;;2.90;;
23113;SDS011;11726;50.122;8.832;2023-07-28T02:59:07;6.03;;;2.70;;
23113;SDS011;11726;50.122;8.832;2023-07-28T03:01:34;3.15;;;1.75;;
23113;SDS011;11726;50.122;8.832;2023-07-28T03:04:01;4.88;;;2.75;;
23113;SDS011;11726;50.122;8.832;2023-07-28T03:06:28;3.63;;;2.42;;
23113;SDS011;11726;50.122;8.832;2023-07-28T03:08:55;2.40;;;2.20;;
23113;SDS011;11726;50.122;8.832;2023-07-28T03:11:24;4.43;;;2.38;;
23113;SDS011;11726;50.122;8.832;2023-07-28T03:13:50;5.75;;;2.60;;
23113;SDS011;11726;50.122;8.832;2023-07-28T03:16:17;3.28;;;2.22;;
23113;SDS011;11726;50.122;8.832;2023-07-28T03:18:44;3.53;;;2.50;;
23113;SDS011;11726;50.122;8.832;2023-07-28T03:21:11;4.05;;;2.70;;
23113;SDS011;11726;50.122;8.832;2023-07-28T03:23:37;3.75;;;2.45;;
23113;SDS011;11726;50.122;8.832;2023-07-28T03:26:04;3.42;;;2.75;;
23113;SDS011;11726;50.122;8.832;2023-07-28T03:28:31;2.95;;;2.08;;
23113;SDS011;11726;50.122;8.832;2023-07-28T03:30:57;5.90;;;2.05;;
23113;SDS011;11726;50.122;8.832;2023-07-28T03:33:24;2.80;;;2.15;;
23113;SDS011;11726;50.122;8.832;2023-07-28T03:35:51;4.72;;;2.15;;
23113;SDS011;11726;50.122;8.832;2023-07-28T03:38:17;3.83;;;2.45;;
23113;SDS011;11726;50.122;8.832;2023-07-28T03:40:45;3.22;;;1.90;;
23113;SDS011;11726;50.122;8.832;2023-07-28T03:43:12;3.15;;;2.53;;
23113;SDS011;11726;50.122;8.832;2023-07-28T03:45:39;3.55;;;2.70;;
23113;SDS011;11726;50.122;8.832;2023-07-28T03:48:06;4.28;;;2.65;;
23113;SDS011;11726;50.122;8.832;2023-07-28T03:50:33;3.17;;;2.47;;
23113;SDS011;11726;50.122;8.832;2023-07-28T03:52:59;4.38;;;2.45;;
23113;SDS011;11726;50.122;8.832;2023-07-28T03:55:26;6.60;;;2.70;;
23113;SDS011;11726;50.122;8.832;2023-07-28T03:57:52;4.15;;;2.67;;
23113;SDS011;11726;50.122;8.832;2023-07-28T04:00:19;6.10;;;2.92;;
23113;SDS011;11726;50.122;8.832;2023-07-28T04:02:46;5.45;;;3.10;;
23113;SDS011;11726;50.122;8.832;2023-07-28T04:05:13;3.17;;;2.63;;
23113;SDS011;11726;50.122;8.832;2023-07-28T04:07:40;4.50;;;3.13;;
23113;SDS011;11726;50.122;8.832;2023-07-28T04:10:07;3.85;;;3.15;;
23113;SDS011;11726;50.122;8.832;2023-07-28T04:12:34;4.65;;;2.90;;
23113;SDS011;11726;50.122;8.832;2023-07-28T04:15:00;4.57;;;2.78;;
23113;SDS011;11726;50.122;8.832;2023-07-28T04:17:27;5.43;;;3.00;;
23113;SDS011;11726;50.122;8.832;2023-07-28T04:19:54;3.63;;;2.85;;
23113;SDS011;11726;50.122;8.832;2023-07-28T04:22:21;3.38;;;2.70;;
23113;SDS011;11726;50.122;8.832;2023-07-28T04:24:47;3.78;;;2.78;;
23113;SDS011;11726;50.122;8.832;2023-07-28T04:27:14;4.88;;;2.42;;
23113;SDS011;11726;50.122;8.832;2023-07-28T04:29:41;3.35;;;2.50;;
23113;SDS011;11726;50.122;8.832;2023-07-28T04:32:08;2.10;;;1.73;;
23113;SDS011;11726;50.122;8.832;2023-07-28T04:34:35;3.75;;;2.20;;
23113;SDS011;11726;50.122;8.832;2023-07-28T04:37:02;5.05;;;2.28;;
23113;SDS011;11726;50.122;8.832;2023-07-28T04:39:29;6.10;;;2.28;;
23113;SDS011;11726;50.122;8.832;2023-07-28T04:41:55;2.53;;;2.15;;
23113;SDS011;11726;50.122;8.832;2023-07-28T04:44:22;2.28;;;2.08;;
23113;SDS011;11726;50.122;8.832;2023-07-28T04:46:49;4.10;;;1.88;;
23113;SDS011;11726;50.122;8.832;2023-07-28T04:49:15;3.80;;;2.42;;
23113;SDS011;11726;50.122;8.832;2023-07-28T04:51:42;4.28;;;2.45;;
23113;SDS011;11726;50.122;8.832;2023-07-28T04:54:09;7.28;;;2.40;;
23113;SDS011;11726;50.122;8.832;2023-07-28T04:56:35;3.47;;;2.40;;
23113;SDS011;11726;50.122;8.832;2023-07-28T04:59:02;2.67;;;2.40;;
23113;SDS011;11726;50.122;8.832;2023-07-28T05:01:30;4.63;;;2.38;;
23113;SDS011;11726;50.122;8.832;2023-07-28T05:03:57;3.42;;;2.65;;
23113;SDS011;11726;50.122;8.832;2023-07-28T05:06:24;3.28;;;2.10;;
23113;SDS011;11726;50.122;8.832;2023-07-28T05:08:50;2.40;;;2.10;;
23113;SDS011;11726;50.122;8.832;2023-07-28T05:11:17;4.72;;;2.15;;
23113;SDS011;11726;50.122;8.832;2023-07-28T05:13:44;3.38;;;2.25;;
23113;SDS011;11726;50.122;8.832;2023-07-28T05:16:10;2.13;;;1.92;;
23113;SDS011;11726;50.122;8.832;2023-07-28T05:18:37;3.00;;;2.40;;
23113;SDS011;11726;50.122;8.832;2023-07-28T05:21:04;4.63;;;2.72;;
23113;SDS011;11726;50.122;8.832;2023-07-28T05:23:30;2.28;;;2.08;;
23113;SDS011;11726;50.122;8.832;2023-07-28T05:25:57;4.18;;;2.65;;
23113;SDS011;11726;50.122;8.832;2023-07-28T05:28:24;3.75;;;2.20;;
23113;SDS011;11726;50.122;8.832;2023-07-28T05:30:50;5.22;;;2.30;;
23113;SDS011;11726;50.122;8.832;2023-07-28T05:33:17;4.53;;;2.10;;
23113;SDS011;11726;50.122;8.832;2023-07-28T05:35:44;6.55;;;2.28;;
23113;SDS011;11726;50.122;8.832;2023-07-28T05:38:11;3.45;;;1.95;;
23113;SDS011;11726;50.122;8.832;2023-07-28T05:40:37;2.92;;;2.35;;
23113;SDS011;11726;50.122;8.832;2023-07-28T05:43:04;3.58;;;1.95;;
23113;SDS011;11726;50.122;8.832;2023-07-28T05:45:31;2.40;;;2.00;;
23113;SDS011;11726;50.122;8.832;2023-07-28T05:47:57;5.47;;;2.03;;
23113;SDS011;11726;50.122;8.832;2023-07-28T05:50:24;2.47;;;2.22;;
23113;SDS011;11726;50.122;8.832;2023-07-28T05:52:51;2.80;;;2.08;;
23113;SDS011;11726;50.122;8.832;2023-07-28T05:55:17;2.05;;;1.88;;
23113;SDS011;11726;50.122;8.832;2023-07-28T05:57:44;5.22;;;2.20;;
23113;SDS011;11726;50.122;8.832;2023-07-28T06:00:11;2.55;;;2.13;;
23113;SDS011;11726;50.122;8.832;2023-07-28T06:02:38;2.13;;;1.80;;
23113;SDS011;11726;50.122;8.832;2023-07-28T06:05:05;2.53;;;2.17;;
23113;SDS011;11726;50.122;8.832;2023-07-28T06:07:32;3.67;;;2.35;;
23113;SDS011;11726;50.122;8.832;2023-07-28T06:09:59;2.72;;;1.95;;
23113;SDS011;11726;50.122;8.832;2023-07-28T06:12:26;2.42;;;1.90;;
23113;SDS011;11726;50.122;8.832;2023-07-28T06:14:52;2.55;;;1.80;;
23113;SDS011;11726;50.122;8.832;2023-07-28T06:17:19;3.85;;;2.10;;
23113;SDS011;11726;50.122;8.832;2023-07-28T06:19:46;3.85;;;2.38;;
23113;SDS011;11726;50.122;8.832;2023-07-28T06:22:12;2.75;;;2.15;;
23113;SDS011;11726;50.122;8.832;2023-07-28T06:24:39;2.92;;;2.00;;
23113;SDS011;11726;50.122;8.832;2023-07-28T06:27:06;2.40;;;1.65;;
23113;SDS011;11726;50.122;8.832;2023-07-28T06:29:35;6.03;;;1.95;;
23113;SDS011;11726;50.122;8.832;2023-07-28T06:32:02;2.70;;;2.15;;
23113;SDS011;11726;50.122;8.832;2023-07-28T06:34:28;2.40;;;2.03;;
23113;SDS011;11726;50.122;8.832;2023-07-28T06:36:55;1.60;;;1.50;;
23113;SDS011;11726;50.122;8.832;2023-07-28T06:39:22;3.00;;;2.08;;
23113;SDS011;11726;50.122;8.832;2023-07-28T06:41:50;2.80;;;2.50;;
23113;SDS011;11726;50.122;8.832;2023-07-28T06:44:17;5.05;;;1.60;;
23113;SDS011;11726;50.122;8.832;2023-07-28T06:46:43;2.40;;;1.65;;
23113;SDS011;11726;50.122;8.832;2023-07-28T06:49:11;1.60;;;1.50;;
23113;SDS011;11726;50.122;8.832;2023-07-28T06:51:37;2.15;;;1.63;;
23113;SDS011;11726;50.122;8.832;2023-07-28T06:54:04;5.13;;;1.95;;
23113;SDS011;11726;50.122;8.832;2023-07-28T06:56:35;9.68;;;1.80;;
23113;SDS011;11726;50.122;8.832;2023-07-28T06:59:01;1.70;;;1.50;;
23113;SDS011;11726;50.122;8.832;2023-07-28T07:01:41;1.50;;;1.40;;
23113;SDS011;11726;50.122;8.832;2023-07-28T07:04:08;1.90;;;1.70;;
23113;SDS011;11726;50.122;8.832;2023-07-28T07:06:34;4.15;;;1.73;;
23113;SDS011;11726;50.122;8.832;2023-07-28T07:09:01;1.38;;;1.20;;
23113;SDS011;11726;50.122;8.832;2023-07-28T07:11:29;3.08;;;1.23;;
23113;SDS011;11726;50.122;8.832;2023-07-28T07:13:56;3.63;;;1.30;;
23113;SDS011;11726;50.122;8.832;2023-07-28T07:16:23;1.88;;;1.40;;
23113;SDS011;11726;50.122;8.832;2023-07-28T07:18:53;1.30;;;1.13;;
23113;SDS011;11726;50.122;8.832;2023-07-28T07:21:20;1.45;;;1.25;;
23113;SDS011;11726;50.122;8.832;2023-07-28T07:23:46;3.50;;;1.17;;
23113;SDS011;11726;50.122;8.832;2023-07-28T07:26:14;0.90;;;0.88;;
23113;SDS011;11726;50.122;8.832;2023-07-28T07:28:40;3.95;;;1.02;;
23113;SDS011;11726;50.122;8.832;2023-07-28T07:31:13;1.50;;;1.00;;
23113;SDS011;11726;50.122;8.832;2023-07-28T07:33:41;1.13;;;1.00;;
23113;SDS011;11726;50.122;8.832;2023-07-28T07:36:15;1.15;;;0.95;;
23113;SDS011;11726;50.122;8.832;2023-07-28T07:38:42;2.00;;;1.13;;
23113;SDS011;11726;50.122;8.832;2023-07-28T07:41:12;1.40;;;0.80;;
23113;SDS011;11726;50.122;8.832;2023-07-28T07:43:42;1.20;;;1.05;;
23113;SDS011;11726;50.122;8.832;2023-07-28T07:46:08;1.35;;;0.77;;
23113;SDS011;11726;50.122;8.832;2023-07-28T07:48:35;1.25;;;1.13;;
23113;SDS011;11726;50.122;8.832;2023-07-28T07:51:02;3.35;;;0.77;;
23113;SDS011;11726;50.122;8.832;2023-07-28T07:53:28;1.98;;;0.88;;
23113;SDS011;11726;50.122;8.832;2023-07-28T07:55:55;1.20;;;0.80;;
23113;SDS011;11726;50.122;8.832;2023-07-28T07:58:22;0.80;;;0.80;;
23113;SDS011;11726;50.122;8.832;2023-07-28T08:00:49;0.88;;;0.70;;
23113;SDS011;11726;50.122;8.832;2023-07-28T08:03:15;1.08;;;0.90;;
23113;SDS011;11726;50.122;8.832;2023-07-28T08:05:42;0.80;;;0.70;;
23113;SDS011;11726;50.122;8.832;2023-07-28T08:08:09;1.10;;;0.90;;
23113;SDS011;11726;50.122;8.832;2023-07-28T08:10:36;1.35;;;1.10;;
23113;SDS011;11726;50.122;8.832;2023-07-28T08:13:04;1.00;;;0.95;;
23113;SDS011;11726;50.122;8.832;2023-07-28T08:15:31;3.67;;;0.80;;
23113;SDS011;11726;50.122;8.832;2023-07-28T08:17:58;0.95;;;0.90;;
23113;SDS011;11726;50.122;8.832;2023-07-28T08:20:25;0.82;;;0.80;;
23113;SDS011;11726;50.122;8.832;2023-07-28T08:22:51;4.28;;;0.70;;
23113;SDS011;11726;50.122;8.832;2023-07-28T08:25:18;4.72;;;0.82;;
23113;SDS011;11726;50.122;8.832;2023-07-28T08:27:45;1.67;;;0.60;;
23113;SDS011;11726;50.122;8.832;2023-07-28T08:30:12;1.05;;;0.70;;
23113;SDS011;11726;50.122;8.832;2023-07-28T08:32:38;0.70;;;0.68;;
23113;SDS011;11726;50.122;8.832;2023-07-28T08:35:05;2.03;;;0.77;;
23113;SDS011;11726;50.122;8.832;2023-07-28T08:37:32;0.98;;;0.90;;
23113;SDS011;11726;50.122;8.832;2023-07-28T08:39:59;0.70;;;0.50;;
23113;SDS011;11726;50.122;8.832;2023-07-28T08:42:25;0.52;;;0.40;;
23113;SDS011;11726;50.122;8.832;2023-07-28T08:44:55;1.48;;;0.65;;
23113;SDS011;11726;50.122;8.832;2023-07-28T08:47:21;2.22;;;0.70;;
23113;SDS011;11726;50.122;8.832;2023-07-28T08:49:48;0.60;;;0.40;;
23113;SDS011;11726;50.122;8.832;2023-07-28T08:52:16;0.73;;;0.60;;
23113;SDS011;11726;50.122;8.832;2023-07-28T08:54:44;0.88;;;0.50;;
23113;SDS011;11726;50.122;8.832;2023-07-28T08:57:10;1.10;;;0.80;;
23113;SDS011;11726;50.122;8.832;2023-07-28T08:59:37;0.77;;;0.60;;
23113;SDS011;11726;50.122;8.832;2023-07-28T09:02:08;1.45;;;0.57;;
23113;SDS011;11726;50.122;8.832;2023-07-28T09:04:36;0.50;;;0.50;;
23113;SDS011;11726;50.122;8.832;2023-07-28T09:07:04;0.50;;;0.50;;
23113;SDS011;11726;50.122;8.832;2023-07-28T09:09:32;0.73;;;0.60;;
23113;SDS011;11726;50.122;8.832;2023-07-28T09:12:00;0.90;;;0.60;;
23113;SDS011;11726;50.122;8.832;2023-07-28T09:14:27;0.55;;;0.47;;
23113;SDS011;11726;50.122;8.832;2023-07-28T09:16:54;1.20;;;0.52;;
23113;SDS011;11726;50.122;8.832;2023-07-28T09:19:21;0.98;;;0.50;;
23113;SDS011;11726;50.122;8.832;2023-07-28T09:21:58;1.17;;;0.63;;
23113;SDS011;11726;50.122;8.832;2023-07-28T09:24:32;0.85;;;0.40;;
23113;SDS011;11726;50.122;8.832;2023-07-28T09:27:00;1.05;;;0.60;;
23113;SDS011;11726;50.122;8.832;2023-07-28T09:29:27;0.47;;;0.47;;
23113;SDS011;11726;50.122;8.832;2023-07-28T09:32:02;0.60;;;0.40;;
23113;SDS011;11726;50.122;8.832;2023-07-28T09:34:30;4.32;;;0.40;;
23113;SDS011;11726;50.122;8.832;2023-07-28T09:36:59;0.60;;;0.40;;
23113;SDS011;11726;50.122;8.832;2023-07-28T09:39:26;0.47;;;0.47;;
23113;SDS011;11726;50.122;8.832;2023-07-28T09:41:54;8.45;;;0.63;;
23113;SDS011;11726;50.122;8.832;2023-07-28T09:44:24;1.08;;;0.60;;
23113;SDS011;11726;50.122;8.832;2023-07-28T09:46:55;0.50;;;0.40;;
23113;SDS011;11726;50.122;8.832;2023-07-28T09:49:29;0.82;;;0.60;;
23113;SDS011;11726;50.122;8.832;2023-07-28T09:52:05;0.50;;;0.38;;
23113;SDS011;11726;50.122;8.832;2023-07-28T09:54:39;1.40;;;0.40;;
23113;SDS011;11726;50.122;8.832;2023-07-28T09:57:13;0.50;;;0.50;;
23113;SDS011;11726;50.122;8.832;2023-07-28T09:59:45;1.63;;;0.68;;
23113;SDS011;11726;50.122;8.832;2023-07-28T10:02:13;1.05;;;0.40;;
23113;SDS011;11726;50.122;8.832;2023-07-28T10:04:40;0.50;;;0.50;;
23113;SDS011;11726;50.122;8.832;2023-07-28T10:07:07;1.10;;;0.57;;
23113;SDS011;11726;50.122;8.832;2023-07-28T10:09:35;0.40;;;0.40;;
23113;SDS011;11726;50.122;8.832;2023-07-28T10:12:04;0.68;;;0.60;;
23113;SDS011;11726;50.122;8.832;2023-07-28T10:14:35;3.03;;;0.80;;
23113;SDS011;11726;50.122;8.832;2023-07-28T10:17:04;0.70;;;0.70;;
23113;SDS011;11726;50.122;8.832;2023-07-28T10:19:35;0.73;;;0.50;;
23113;SDS011;11726;50.122;8.832;2023-07-28T10:22:06;0.40;;;0.40;;
23113;SDS011;11726;50.122;8.832;2023-07-28T10:24:51;0.40;;;0.40;;
23113;SDS011;11726;50.122;8.832;2023-07-28T10:27:29;2.38;;;0.47;;
23113;SDS011;11726;50.122;8.832;2023-07-28T10:30:12;1.55;;;0.60;;
23113;SDS011;11726;50.122;8.832;2023-07-28T10:32:41;3.55;;;0.68;;
23113;SDS011;11726;50.122;8.832;2023-07-28T10:37:39;1.38;;;0.45;;
23113;SDS011;11726;50.122;8.832;2023-07-28T10:40:23;0.45;;;0.40;;
23113;SDS011;11726;50.122;8.832;2023-07-28T10:42:57;0.32;;;0.32;;
23113;SDS011;11726;50.122;8.832;2023-07-28T10:45:28;0.70;;;0.60;;
23113;SDS011;11726;50.122;8.832;2023-07-28T10:47:56;0.40;;;0.35;;
23113;SDS011;11726;50.122;8.832;2023-07-28T10:50:27;3.15;;;0.63;;
23113;SDS011;11726;50.122;8.832;2023-07-28T10:52:55;1.10;;;0.60;;
23113;SDS011;11726;50.122;8.832;2023-07-28T10:55:23;1.55;;;0.40;;
23113;SDS011;11726;50.122;8.832;2023-07-28T10:57:51;0.55;;;0.47;;
23113;SDS011;11726;50.122;8.832;2023-07-28T11:00:20;0.45;;;0.45;;
23113;SDS011;11726;50.122;8.832;2023-07-28T11:02:52;0.40;;;0.40;;
23113;SDS011;11726;50.122;8.832;2023-07-28T11:05:24;2.42;;;0.57;;
23113;SDS011;11726;50.122;8.832;2023-07-28T11:07:56;0.43;;;0.43;;
23113;SDS011;11726;50.122;8.832;2023-07-28T11:10:24;0.52;;;0.52;;
23113;SDS011;11726;50.122;8.832;2023-07-28T11:12:53;0.57;;;0.52;;
23113;SDS011;11726;50.122;8.832;2023-07-28T11:15:28;0.55;;;0.50;;
23113;SDS011;11726;50.122;8.832;2023-07-28T11:17:55;1.85;;;0.57;;
23113;SDS011;11726;50.122;8.832;2023-07-28T11:20:23;0.63;;;0.60;;
23113;SDS011;11726;50.122;8.832;2023-07-28T11:22:52;1.00;;;0.60;;
23113;SDS011;11726;50.122;8.832;2023-07-28T11:25:20;0.60;;;0.60;;
23113;SDS011;11726;50.122;8.832;2023-07-28T11:27:47;1.20;;;0.80;;
23113;SDS011;11726;50.122;8.832;2023-07-28T11:30:15;0.77;;;0.60;;
23113;SDS011;11726;50.122;8.832;2023-07-28T11:32:44;1.25;;;0.90;;
23113;SDS011;11726;50.122;8.832;2023-07-28T11:35:13;1.80;;;1.08;;
23113;SDS011;11726;50.122;8.832;2023-07-28T11:37:42;1.08;;;0.90;;
23113;SDS011;11726;50.122;8.832;2023-07-28T11:40:11;0.93;;;0.90;;
23113;SDS011;11726;50.122;8.832;2023-07-28T11:42:41;3.35;;;1.00;;
23113;SDS011;11726;50.122;8.832;2023-07-28T11:45:12;1.52;;;0.95;;
23113;SDS011;11726;50.122;8.832;2023-07-28T11:47:50;0.88;;;0.77;;
23113;SDS011;11726;50.122;8.832;2023-07-28T11:50:25;2.17;;;1.17;;
23113;SDS011;11726;50.122;8.832;2023-07-28T11:52:53;2.67;;;1.20;;
23113;SDS011;11726;50.122;8.832;2023-07-28T11:55:21;1.65;;;1.35;;
23113;SDS011;11726;50.122;8.832;2023-07-28T11:57:49;1.38;;;1.27;;
23113;SDS011;11726;50.122;8.832;2023-07-28T12:00:17;1.40;;;1.30;;
23113;SDS011;11726;50.122;8.832;2023-07-28T12:02:44;2.47;;;1.58;;
23113;SDS011;11726;50.122;8.832;2023-07-28T12:05:15;2.55;;;1.38;;
23113;SDS011;11726;50.122;8.832;2023-07-28T12:07:47;1.58;;;1.48;;
23113;SDS011;11726;50.122;8.832;2023-07-28T12:10:14;2.50;;;1.90;;
23113;SDS011;11726;50.122;8.832;2023-07-28T12:13:05;2.00;;;1.67;;
23113;SDS011;11726;50.122;8.832;2023-07-28T12:18:13;2.95;;;1.88;;
23113;SDS011;11726;50.122;8.832;2023-07-28T12:20:47;2.03;;;1.90;;
23113;SDS011;11726;50.122;8.832;2023-07-28T12:23:17;4.82;;;1.92;;
23113;SDS011;11726;50.122;8.832;2023-07-28T12:25:49;2.25;;;1.70;;
23113;SDS011;11726;50.122;8.832;2023-07-28T12:28:21;3.33;;;2.08;;
23113;SDS011;11726;50.122;8.832;2023-07-28T12:30:48;2.20;;;2.00;;
23113;SDS011;11726;50.122;8.832;2023-07-28T12:33:18;2.03;;;1.83;;
23113;SDS011;11726;50.122;8.832;2023-07-28T12:35:47;1.83;;;1.55;;
23113;SDS011;11726;50.122;8.832;2023-07-28T12:38:16;1.80;;;1.70;;
23113;SDS011;11726;50.122;8.832;2023-07-28T12:40:46;2.00;;;1.83;;
23113;SDS011;11726;50.122;8.832;2023-07-28T12:43:16;6.93;;;2.13;;
23113;SDS011;11726;50.122;8.832;2023-07-28T12:45:45;3.83;;;2.30;;
23113;SDS011;11726;50.122;8.832;2023-07-28T12:48:15;2.97;;;2.30;;
23113;SDS011;11726;50.122;8.832;2023-07-28T12:50:45;2.35;;;1.88;;
23113;SDS011;11726;50.122;8.832;2023-07-28T12:53:12;2.92;;;2.03;;
23113;SDS011;11726;50.122;8.832;2023-07-28T12:55:43;2.05;;;1.92;;
23113;SDS011;11726;50.122;8.832;2023-07-28T12:58:12;2.95;;;1.50;;
23113;SDS011;11726;50.122;8.832;2023-07-28T13:00:42;2.20;;;1.90;;
23113;SDS011;11726;50.122;8.832;2023-07-28T13:03:13;2.40;;;1.50;;
23113;SDS011;11726;50.122;8.832;2023-07-28T13:05:39;1.60;;;1.40;;
23113;SDS011;11726;50.122;8.832;2023-07-28T13:08:10;5.28;;;1.45;;
23113;SDS011;11726;50.122;8.832;2023-07-28T13:10:37;1.55;;;1.45;;
23113;SDS011;11726;50.122;8.832;2023-07-28T13:13:07;2.58;;;1.38;;
23113;SDS011;11726;50.122;8.832;2023-07-28T13:15:39;1.50;;;1.30;;
23113;SDS011;11726;50.122;8.832;2023-07-28T13:18:06;1.67;;;1.50;;
23113;SDS011;11726;50.122;8.832;2023-07-28T13:20:33;2.03;;;1.40;;
23113;SDS011;11726;50.122;8.832;2023-07-28T13:22:59;3.20;;;1.45;;
23113;SDS011;11726;50.122;8.832;2023-07-28T13:25:26;1.52;;;1.42;;
23113;SDS011;11726;50.122;8.832;2023-07-28T13:27:53;1.70;;;1.50;;
23113;SDS011;11726;50.122;8.832;2023-07-28T13:30:20;1.40;;;1.30;;
23113;SDS011;11726;50.122;8.832;2023-07-28T13:32:47;2.78;;;1.38;;
23113;SDS011;11726;50.122;8.832;2023-07-28T13:35:14;3.53;;;1.13;;
23113;SDS011;11726;50.122;8.832;2023-07-28T13:37:41;1.33;;;1.20;;
23113;SDS011;11726;50.122;8.832;2023-07-28T13:40:08;2.45;;;1.42;;
23113;SDS011;11726;50.122;8.832;2023-07-28T13:42:37;1.40;;;1.30;;
23113;SDS011;11726;50.122;8.832;2023-07-28T13:45:04;1.35;;;1.25;;
23113;SDS011;11726;50.122;8.832;2023-07-28T13:47:31;2.70;;;1.20;;
23113;SDS011;11726;50.122;8.832;2023-07-28T13:49:58;2.45;;;1.30;;
23113;SDS011;11726;50.122;8.832;2023-07-28T13:52:25;2.15;;;1.50;;
23113;SDS011;11726;50.122;8.832;2023-07-28T13:54:52;1.50;;;1.30;;
23113;SDS011;11726;50.122;8.832;2023-07-28T13:57:22;1.77;;;1.20;;
23113;SDS011;11726;50.122;8.832;2023-07-28T13:59:48;2.67;;;1.40;;
23113;SDS011;11726;50.122;8.832;2023-07-28T14:02:18;3.03;;;1.15;;
23113;SDS011;11726;50.122;8.832;2023-07-28T14:04:45;1.45;;;1.35;;
23113;SDS011;11726;50.122;8.832;2023-07-28T14:07:12;1.83;;;1.67;;
23113;SDS011;11726;50.122;8.832;2023-07-28T14:09:38;1.50;;;1.40;;
23113;SDS011;11726;50.122;8.832;2023-07-28T14:12:06;5.35;;;1.75;;
23113;SDS011;11726;50.122;8.832;2023-07-28T14:14:33;3.42;;;1.90;;
23113;SDS011;11726;50.122;8.832;2023-07-28T14:16:59;4.97;;;1.88;;
23113;SDS011;11726;50.122;8.832;2023-07-28T14:19:26;2.15;;;1.33;;
23113;SDS011;11726;50.122;8.832;2023-07-28T14:21:54;1.40;;;1.27;;
23113;SDS011;11726;50.122;8.832;2023-07-28T14:24:21;1.63;;;1.30;;
23113;SDS011;11726;50.122;8.832;2023-07-28T14:26:47;2.08;;;1.50;;
23113;SDS011;11726;50.122;8.832;2023-07-28T14:29:14;2.75;;;1.88;;
23113;SDS011;11726;50.122;8.832;2023-07-28T14:31:41;3.13;;;1.38;;
23113;SDS011;11726;50.122;8.832;2023-07-28T14:34:08;1.50;;;1.40;;
23113;SDS011;11726;50.122;8.832;2023-07-28T14:36:34;1.67;;;1.50;;
23113;SDS011;11726;50.122;8.832;2023-07-28T14:39:02;2.83;;;1.67;;
23113;SDS011;11726;50.122;8.832;2023-07-28T14:41:29;1.83;;;1.40;;
23113;SDS011;11726;50.122;8.832;2023-07-28T14:43:56;2.70;;;1.58;;
23113;SDS011;11726;50.122;8.832;2023-07-28T14:46:23;4.75;;;1.67;;
23113;SDS011;11726;50.122;8.832;2023-07-28T14:48:52;2.22;;;1.60;;
23113;SDS011;11726;50.122;8.832;2023-07-28T14:51:19;9.57;;;3.13;;
23113;SDS011;11726;50.122;8.832;2023-07-28T14:53:46;2.30;;;1.60;;
23113;SDS011;11726;50.122;8.832;2023-07-28T14:56:14;5.15;;;1.73;;
23113;SDS011;11726;50.122;8.832;2023-07-28T14:58:41;2.90;;;2.05;;
23113;SDS011;11726;50.122;8.832;2023-07-28T15:01:12;3.22;;;1.70;;
23113;SDS011;11726;50.122;8.832;2023-07-28T15:03:38;1.70;;;1.50;;